Haines City, Florida
Current Conditions -  °F | °C
As of 11:13 AM on Monday 24 Nov 2014 (Local Time) from KGIF Reporting Station
Broken Clouds Broken Clouds  
Wind Chill: 83°   Ceiling: 2100
Heat Index: 88°   Visibility: 10mi
Dew Point: 72°   Wind: 12mph
Humidity: 69%   Direction: 190°S
Pressure: 29.99"   Gusts: NA
Location:  28.11°N, 81.63°W
Report Text: KGIF 241613Z AUTO 19010KT 10SM BKN021 BKN030 28/22 A2999 RMK AO2 T02830222
Loading
Personal Weather Stations






























Interactive Weather Map New forecast layout! Learn more

10-Day Weather Forecast

Advertisements
Track Severe Weather on mobile